sensor_id;sensor_type;location;lat;lon;timestamp;P1;durP1;ratioP1;P2;durP2;ratioP2
45893;SDS011;31603;51.148;16.932;2024-01-06T00:01:20;77.35;;;26.90;;
45893;SDS011;31603;51.148;16.932;2024-01-06T00:03:47;95.20;;;26.48;;
45893;SDS011;31603;51.148;16.932;2024-01-06T00:06:14;99.15;;;29.35;;
45893;SDS011;31603;51.148;16.932;2024-01-06T00:08:41;99.72;;;25.38;;
45893;SDS011;31603;51.148;16.932;2024-01-06T00:11:09;101.60;;;28.27;;
45893;SDS011;31603;51.148;16.932;2024-01-06T00:13:36;100.35;;;27.95;;
45893;SDS011;31603;51.148;16.932;2024-01-06T00:16:03;89.25;;;28.83;;
45893;SDS011;31603;51.148;16.932;2024-01-06T00:18:30;85.30;;;27.42;;
45893;SDS011;31603;51.148;16.932;2024-01-06T00:20:57;93.95;;;28.05;;
45893;SDS011;31603;51.148;16.932;2024-01-06T00:23:23;87.13;;;26.75;;
45893;SDS011;31603;51.148;16.932;2024-01-06T00:25:50;105.47;;;30.88;;
45893;SDS011;31603;51.148;16.932;2024-01-06T00:28:18;95.78;;;27.75;;
45893;SDS011;31603;51.148;16.932;2024-01-06T00:30:45;80.85;;;27.23;;
45893;SDS011;31603;51.148;16.932;2024-01-06T00:33:14;87.88;;;27.35;;
45893;SDS011;31603;51.148;16.932;2024-01-06T00:35:41;83.70;;;30.58;;
45893;SDS011;31603;51.148;16.932;2024-01-06T00:38:08;107.03;;;31.55;;
45893;SDS011;31603;51.148;16.932;2024-01-06T00:40:34;90.93;;;30.63;;
45893;SDS011;31603;51.148;16.932;2024-01-06T00:43:02;102.80;;;31.92;;
45893;SDS011;31603;51.148;16.932;2024-01-06T00:45:30;96.40;;;30.38;;
45893;SDS011;31603;51.148;16.932;2024-01-06T00:47:57;106.13;;;29.50;;
45893;SDS011;31603;51.148;16.932;2024-01-06T00:50:24;103.18;;;32.03;;
45893;SDS011;31603;51.148;16.932;2024-01-06T00:52:53;117.50;;;30.15;;
45893;SDS011;31603;51.148;16.932;2024-01-06T00:55:19;89.38;;;29.00;;
45893;SDS011;31603;51.148;16.932;2024-01-06T00:57:46;110.00;;;30.33;;
45893;SDS011;31603;51.148;16.932;2024-01-06T01:00:13;95.50;;;28.15;;
45893;SDS011;31603;51.148;16.932;2024-01-06T01:02:42;90.55;;;28.08;;
45893;SDS011;31603;51.148;16.932;2024-01-06T01:05:09;98.50;;;31.60;;
45893;SDS011;31603;51.148;16.932;2024-01-06T01:07:35;97.97;;;29.60;;
45893;SDS011;31603;51.148;16.932;2024-01-06T01:10:05;92.65;;;29.00;;
45893;SDS011;31603;51.148;16.932;2024-01-06T01:12:32;94.20;;;29.35;;
45893;SDS011;31603;51.148;16.932;2024-01-06T01:14:59;91.35;;;28.02;;
45893;SDS011;31603;51.148;16.932;2024-01-06T01:17:26;98.93;;;30.27;;
45893;SDS011;31603;51.148;16.932;2024-01-06T01:19:54;96.38;;;30.55;;
45893;SDS011;31603;51.148;16.932;2024-01-06T01:22:20;93.65;;;28.00;;
45893;SDS011;31603;51.148;16.932;2024-01-06T01:24:49;97.57;;;30.30;;
45893;SDS011;31603;51.148;16.932;2024-01-06T01:27:16;90.38;;;28.73;;
45893;SDS011;31603;51.148;16.932;2024-01-06T01:29:43;93.68;;;29.52;;
45893;SDS011;31603;51.148;16.932;2024-01-06T01:32:09;94.22;;;26.08;;
45893;SDS011;31603;51.148;16.932;2024-01-06T01:34:39;77.13;;;27.65;;
45893;SDS011;31603;51.148;16.932;2024-01-06T01:37:07;85.85;;;28.33;;
45893;SDS011;31603;51.148;16.932;2024-01-06T01:39:33;91.82;;;29.25;;
45893;SDS011;31603;51.148;16.932;2024-01-06T01:42:00;98.30;;;33.75;;
45893;SDS011;31603;51.148;16.932;2024-01-06T01:44:27;126.35;;;35.42;;
45893;SDS011;31603;51.148;16.932;2024-01-06T01:46:54;120.13;;;37.95;;
45893;SDS011;31603;51.148;16.932;2024-01-06T01:49:23;121.10;;;33.80;;
45893;SDS011;31603;51.148;16.932;2024-01-06T01:51:51;114.20;;;35.55;;
45893;SDS011;31603;51.148;16.932;2024-01-06T01:54:20;119.43;;;39.65;;
45893;SDS011;31603;51.148;16.932;2024-01-06T01:56:47;92.63;;;29.50;;
45893;SDS011;31603;51.148;16.932;2024-01-06T01:59:14;106.65;;;29.38;;
45893;SDS011;31603;51.148;16.932;2024-01-06T02:01:44;98.55;;;26.50;;
45893;SDS011;31603;51.148;16.932;2024-01-06T02:04:11;90.50;;;28.73;;
45893;SDS011;31603;51.148;16.932;2024-01-06T02:06:38;84.25;;;26.35;;
45893;SDS011;31603;51.148;16.932;2024-01-06T02:09:05;94.07;;;30.75;;
45893;SDS011;31603;51.148;16.932;2024-01-06T02:11:33;92.65;;;27.45;;
45893;SDS011;31603;51.148;16.932;2024-01-06T02:14:00;100.43;;;30.45;;
45893;SDS011;31603;51.148;16.932;2024-01-06T02:16:27;103.65;;;31.10;;
45893;SDS011;31603;51.148;16.932;2024-01-06T02:18:59;90.07;;;26.90;;
45893;SDS011;31603;51.148;16.932;2024-01-06T02:21:26;93.75;;;26.38;;
45893;SDS011;31603;51.148;16.932;2024-01-06T02:23:55;103.95;;;32.83;;
45893;SDS011;31603;51.148;16.932;2024-01-06T02:26:22;121.93;;;32.70;;
45893;SDS011;31603;51.148;16.932;2024-01-06T02:28:49;91.28;;;27.80;;
45893;SDS011;31603;51.148;16.932;2024-01-06T02:31:15;102.53;;;29.23;;
45893;SDS011;31603;51.148;16.932;2024-01-06T02:33:42;92.70;;;28.38;;
45893;SDS011;31603;51.148;16.932;2024-01-06T02:36:09;103.47;;;29.38;;
45893;SDS011;31603;51.148;16.932;2024-01-06T02:38:36;82.82;;;26.20;;
45893;SDS011;31603;51.148;16.932;2024-01-06T02:41:04;85.90;;;26.60;;
45893;SDS011;31603;51.148;16.932;2024-01-06T02:43:31;95.25;;;26.35;;
45893;SDS011;31603;51.148;16.932;2024-01-06T02:45:57;101.30;;;30.15;;
45893;SDS011;31603;51.148;16.932;2024-01-06T02:48:24;92.03;;;29.33;;
45893;SDS011;31603;51.148;16.932;2024-01-06T02:50:54;104.35;;;29.38;;
45893;SDS011;31603;51.148;16.932;2024-01-06T02:53:21;92.03;;;28.20;;
45893;SDS011;31603;51.148;16.932;2024-01-06T02:55:47;97.03;;;28.90;;
45893;SDS011;31603;51.148;16.932;2024-01-06T02:58:15;92.45;;;27.90;;
45893;SDS011;31603;51.148;16.932;2024-01-06T03:00:42;89.32;;;25.05;;
45893;SDS011;31603;51.148;16.932;2024-01-06T03:03:09;84.70;;;27.75;;
45893;SDS011;31603;51.148;16.932;2024-01-06T03:05:36;93.25;;;26.65;;
45893;SDS011;31603;51.148;16.932;2024-01-06T03:08:03;93.70;;;30.10;;
45893;SDS011;31603;51.148;16.932;2024-01-06T03:10:30;87.15;;;25.42;;
45893;SDS011;31603;51.148;16.932;2024-01-06T03:12:57;89.70;;;26.30;;
45893;SDS011;31603;51.148;16.932;2024-01-06T03:15:25;93.97;;;27.20;;
45893;SDS011;31603;51.148;16.932;2024-01-06T03:17:52;85.00;;;25.48;;
45893;SDS011;31603;51.148;16.932;2024-01-06T03:20:19;93.15;;;26.73;;
45893;SDS011;31603;51.148;16.932;2024-01-06T03:22:46;77.32;;;25.30;;
45893;SDS011;31603;51.148;16.932;2024-01-06T03:25:12;80.10;;;25.02;;
45893;SDS011;31603;51.148;16.932;2024-01-06T03:27:39;94.45;;;25.90;;
45893;SDS011;31603;51.148;16.932;2024-01-06T03:30:06;87.25;;;26.60;;
45893;SDS011;31603;51.148;16.932;2024-01-06T03:32:35;72.97;;;23.55;;
45893;SDS011;31603;51.148;16.932;2024-01-06T03:35:02;83.88;;;22.83;;
45893;SDS011;31603;51.148;16.932;2024-01-06T03:37:31;84.20;;;25.10;;
45893;SDS011;31603;51.148;16.932;2024-01-06T03:39:57;85.25;;;25.23;;
45893;SDS011;31603;51.148;16.932;2024-01-06T03:42:24;83.45;;;27.05;;
45893;SDS011;31603;51.148;16.932;2024-01-06T03:44:51;86.25;;;26.98;;
45893;SDS011;31603;51.148;16.932;2024-01-06T03:47:18;82.35;;;24.35;;
45893;SDS011;31603;51.148;16.932;2024-01-06T03:49:46;88.07;;;27.92;;
45893;SDS011;31603;51.148;16.932;2024-01-06T03:52:13;91.55;;;26.30;;
45893;SDS011;31603;51.148;16.932;2024-01-06T03:54:40;97.60;;;25.95;;
45893;SDS011;31603;51.148;16.932;2024-01-06T03:57:06;84.68;;;28.40;;
45893;SDS011;31603;51.148;16.932;2024-01-06T03:59:33;89.70;;;25.85;;
45893;SDS011;31603;51.148;16.932;2024-01-06T04:02:00;88.25;;;27.05;;
45893;SDS011;31603;51.148;16.932;2024-01-06T04:04:27;80.07;;;23.55;;
45893;SDS011;31603;51.148;16.932;2024-01-06T04:06:55;86.97;;;24.48;;
45893;SDS011;31603;51.148;16.932;2024-01-06T04:09:21;87.60;;;24.27;;
45893;SDS011;31603;51.148;16.932;2024-01-06T04:11:48;99.30;;;29.02;;
45893;SDS011;31603;51.148;16.932;2024-01-06T04:14:15;96.72;;;26.80;;
45893;SDS011;31603;51.148;16.932;2024-01-06T04:16:41;88.50;;;28.27;;
45893;SDS011;31603;51.148;16.932;2024-01-06T04:19:08;90.22;;;29.70;;
45893;SDS011;31603;51.148;16.932;2024-01-06T04:21:36;81.05;;;24.65;;
45893;SDS011;31603;51.148;16.932;2024-01-06T04:24:05;107.30;;;34.15;;
45893;SDS011;31603;51.148;16.932;2024-01-06T04:26:32;108.68;;;30.25;;
45893;SDS011;31603;51.148;16.932;2024-01-06T04:28:58;114.00;;;36.20;;
45893;SDS011;31603;51.148;16.932;2024-01-06T04:31:25;119.95;;;33.95;;
45893;SDS011;31603;51.148;16.932;2024-01-06T04:33:51;116.78;;;29.20;;
45893;SDS011;31603;51.148;16.932;2024-01-06T04:36:18;117.35;;;32.40;;
45893;SDS011;31603;51.148;16.932;2024-01-06T04:38:45;94.07;;;26.92;;
45893;SDS011;31603;51.148;16.932;2024-01-06T04:41:13;82.93;;;24.35;;
45893;SDS011;31603;51.148;16.932;2024-01-06T04:43:40;96.47;;;26.55;;
45893;SDS011;31603;51.148;16.932;2024-01-06T04:46:07;86.38;;;27.15;;
45893;SDS011;31603;51.148;16.932;2024-01-06T04:48:33;90.18;;;26.38;;
45893;SDS011;31603;51.148;16.932;2024-01-06T04:51:00;90.75;;;25.65;;
45893;SDS011;31603;51.148;16.932;2024-01-06T04:53:28;80.88;;;23.00;;
45893;SDS011;31603;51.148;16.932;2024-01-06T04:55:55;105.00;;;28.25;;
45893;SDS011;31603;51.148;16.932;2024-01-06T04:58:23;84.30;;;24.50;;
45893;SDS011;31603;51.148;16.932;2024-01-06T05:00:50;92.80;;;26.35;;
45893;SDS011;31603;51.148;16.932;2024-01-06T05:03:18;78.03;;;24.63;;
45893;SDS011;31603;51.148;16.932;2024-01-06T05:05:46;97.97;;;27.33;;
45893;SDS011;31603;51.148;16.932;2024-01-06T05:08:13;92.45;;;26.83;;
45893;SDS011;31603;51.148;16.932;2024-01-06T05:10:40;107.30;;;26.73;;
45893;SDS011;31603;51.148;16.932;2024-01-06T05:13:06;78.38;;;24.00;;
45893;SDS011;31603;51.148;16.932;2024-01-06T05:15:34;85.82;;;24.15;;
45893;SDS011;31603;51.148;16.932;2024-01-06T05:18:01;98.53;;;26.80;;
45893;SDS011;31603;51.148;16.932;2024-01-06T05:20:28;81.38;;;24.42;;
45893;SDS011;31603;51.148;16.932;2024-01-06T05:22:56;101.60;;;24.27;;
45893;SDS011;31603;51.148;16.932;2024-01-06T05:25:22;92.50;;;26.30;;
45893;SDS011;31603;51.148;16.932;2024-01-06T05:27:49;94.40;;;25.75;;
45893;SDS011;31603;51.148;16.932;2024-01-06T05:30:16;89.22;;;23.63;;
45893;SDS011;31603;51.148;16.932;2024-01-06T05:32:44;95.13;;;24.38;;
45893;SDS011;31603;51.148;16.932;2024-01-06T05:35:15;83.18;;;24.15;;
45893;SDS011;31603;51.148;16.932;2024-01-06T05:37:42;113.63;;;27.90;;
45893;SDS011;31603;51.148;16.932;2024-01-06T05:40:09;88.00;;;25.73;;
45893;SDS011;31603;51.148;16.932;2024-01-06T05:42:38;80.57;;;26.30;;
45893;SDS011;31603;51.148;16.932;2024-01-06T05:45:05;92.05;;;23.90;;
45893;SDS011;31603;51.148;16.932;2024-01-06T05:47:32;81.18;;;24.75;;
45893;SDS011;31603;51.148;16.932;2024-01-06T05:50:00;86.25;;;25.40;;
45893;SDS011;31603;51.148;16.932;2024-01-06T05:52:26;80.13;;;24.45;;
45893;SDS011;31603;51.148;16.932;2024-01-06T05:54:53;80.65;;;24.88;;
45893;SDS011;31603;51.148;16.932;2024-01-06T05:57:20;92.85;;;25.77;;
45893;SDS011;31603;51.148;16.932;2024-01-06T05:59:48;91.13;;;22.88;;
45893;SDS011;31603;51.148;16.932;2024-01-06T06:02:14;84.93;;;25.27;;
45893;SDS011;31603;51.148;16.932;2024-01-06T06:04:41;87.90;;;25.98;;
45893;SDS011;31603;51.148;16.932;2024-01-06T06:07:12;72.47;;;23.65;;
45893;SDS011;31603;51.148;16.932;2024-01-06T06:09:41;86.90;;;24.57;;
45893;SDS011;31603;51.148;16.932;2024-01-06T06:12:08;86.97;;;23.55;;
45893;SDS011;31603;51.148;16.932;2024-01-06T06:14:34;72.60;;;25.27;;
45893;SDS011;31603;51.148;16.932;2024-01-06T06:17:01;86.57;;;24.42;;
45893;SDS011;31603;51.148;16.932;2024-01-06T06:19:28;95.03;;;26.77;;
45893;SDS011;31603;51.148;16.932;2024-01-06T06:21:56;82.47;;;24.05;;
45893;SDS011;31603;51.148;16.932;2024-01-06T06:24:24;74.88;;;22.10;;
45893;SDS011;31603;51.148;16.932;2024-01-06T06:26:51;82.70;;;25.67;;
45893;SDS011;31603;51.148;16.932;2024-01-06T06:29:20;99.78;;;24.08;;
45893;SDS011;31603;51.148;16.932;2024-01-06T06:31:47;100.78;;;26.67;;
45893;SDS011;31603;51.148;16.932;2024-01-06T06:34:16;79.28;;;21.77;;
45893;SDS011;31603;51.148;16.932;2024-01-06T06:36:45;80.90;;;23.98;;
45893;SDS011;31603;51.148;16.932;2024-01-06T06:39:12;76.85;;;23.70;;
45893;SDS011;31603;51.148;16.932;2024-01-06T06:41:40;74.63;;;21.13;;
45893;SDS011;31603;51.148;16.932;2024-01-06T06:44:08;86.47;;;23.33;;
45893;SDS011;31603;51.148;16.932;2024-01-06T06:46:35;94.18;;;21.23;;
45893;SDS011;31603;51.148;16.932;2024-01-06T06:49:02;84.75;;;23.15;;
45893;SDS011;31603;51.148;16.932;2024-01-06T06:51:30;75.88;;;21.45;;
45893;SDS011;31603;51.148;16.932;2024-01-06T06:53:56;76.57;;;22.88;;
45893;SDS011;31603;51.148;16.932;2024-01-06T06:56:23;82.65;;;22.63;;
45893;SDS011;31603;51.148;16.932;2024-01-06T06:58:51;94.45;;;25.60;;
45893;SDS011;31603;51.148;16.932;2024-01-06T07:01:18;71.00;;;20.73;;
45893;SDS011;31603;51.148;16.932;2024-01-06T07:03:45;86.07;;;24.00;;
45893;SDS011;31603;51.148;16.932;2024-01-06T07:06:12;78.90;;;23.00;;
45893;SDS011;31603;51.148;16.932;2024-01-06T07:08:41;83.53;;;24.63;;
45893;SDS011;31603;51.148;16.932;2024-01-06T07:11:08;74.28;;;23.33;;
45893;SDS011;31603;51.148;16.932;2024-01-06T07:13:36;81.75;;;22.90;;
45893;SDS011;31603;51.148;16.932;2024-01-06T07:16:08;84.68;;;25.00;;
45893;SDS011;31603;51.148;16.932;2024-01-06T07:18:36;104.18;;;24.77;;
45893;SDS011;31603;51.148;16.932;2024-01-06T07:21:05;79.93;;;22.58;;
45893;SDS011;31603;51.148;16.932;2024-01-06T07:23:32;60.03;;;20.50;;
45893;SDS011;31603;51.148;16.932;2024-01-06T07:26:00;79.95;;;22.38;;
45893;SDS011;31603;51.148;16.932;2024-01-06T07:28:27;88.97;;;25.30;;
45893;SDS011;31603;51.148;16.932;2024-01-06T07:30:54;69.10;;;22.73;;
45893;SDS011;31603;51.148;16.932;2024-01-06T07:33:22;74.45;;;19.73;;
45893;SDS011;31603;51.148;16.932;2024-01-06T07:35:50;73.70;;;21.60;;
45893;SDS011;31603;51.148;16.932;2024-01-06T07:38:16;76.75;;;22.13;;
45893;SDS011;31603;51.148;16.932;2024-01-06T07:40:44;77.80;;;25.00;;
45893;SDS011;31603;51.148;16.932;2024-01-06T07:43:11;82.68;;;21.05;;
45893;SDS011;31603;51.148;16.932;2024-01-06T07:45:41;87.03;;;26.05;;
45893;SDS011;31603;51.148;16.932;2024-01-06T07:48:07;103.10;;;27.50;;
45893;SDS011;31603;51.148;16.932;2024-01-06T07:50:35;107.00;;;30.55;;
45893;SDS011;31603;51.148;16.932;2024-01-06T07:53:03;83.97;;;23.73;;
45893;SDS011;31603;51.148;16.932;2024-01-06T07:55:30;93.55;;;26.80;;
45893;SDS011;31603;51.148;16.932;2024-01-06T07:57:56;119.25;;;33.08;;
45893;SDS011;31603;51.148;16.932;2024-01-06T08:00:23;109.25;;;33.13;;
45893;SDS011;31603;51.148;16.932;2024-01-06T08:02:50;92.40;;;30.00;;
45893;SDS011;31603;51.148;16.932;2024-01-06T08:05:17;95.53;;;29.38;;
45893;SDS011;31603;51.148;16.932;2024-01-06T08:07:48;96.07;;;27.30;;
45893;SDS011;31603;51.148;16.932;2024-01-06T08:10:15;85.57;;;27.13;;
45893;SDS011;31603;51.148;16.932;2024-01-06T08:12:42;102.53;;;28.55;;
45893;SDS011;31603;51.148;16.932;2024-01-06T08:15:09;94.55;;;29.73;;
45893;SDS011;31603;51.148;16.932;2024-01-06T08:17:36;81.15;;;26.15;;
45893;SDS011;31603;51.148;16.932;2024-01-06T08:20:07;81.90;;;23.13;;
45893;SDS011;31603;51.148;16.932;2024-01-06T08:22:34;85.00;;;23.77;;
45893;SDS011;31603;51.148;16.932;2024-01-06T08:25:02;83.65;;;24.73;;
45893;SDS011;31603;51.148;16.932;2024-01-06T08:27:32;90.10;;;22.58;;
45893;SDS011;31603;51.148;16.932;2024-01-06T08:30:00;81.72;;;24.83;;
45893;SDS011;31603;51.148;16.932;2024-01-06T08:32:26;77.75;;;22.90;;
45893;SDS011;31603;51.148;16.932;2024-01-06T08:34:53;94.50;;;26.63;;
45893;SDS011;31603;51.148;16.932;2024-01-06T08:37:20;83.55;;;24.48;;
45893;SDS011;31603;51.148;16.932;2024-01-06T08:39:47;74.38;;;23.90;;
45893;SDS011;31603;51.148;16.932;2024-01-06T08:42:15;75.53;;;20.98;;
45893;SDS011;31603;51.148;16.932;2024-01-06T08:44:42;84.03;;;24.55;;
45893;SDS011;31603;51.148;16.932;2024-01-06T08:47:09;91.78;;;24.23;;
45893;SDS011;31603;51.148;16.932;2024-01-06T08:49:37;78.28;;;22.63;;
45893;SDS011;31603;51.148;16.932;2024-01-06T08:52:04;71.93;;;21.73;;
45893;SDS011;31603;51.148;16.932;2024-01-06T08:54:32;90.72;;;23.33;;
45893;SDS011;31603;51.148;16.932;2024-01-06T08:56:59;76.03;;;20.55;;
45893;SDS011;31603;51.148;16.932;2024-01-06T08:59:28;75.97;;;21.58;;
45893;SDS011;31603;51.148;16.932;2024-01-06T09:01:54;84.05;;;22.40;;
45893;SDS011;31603;51.148;16.932;2024-01-06T09:04:22;81.90;;;20.60;;
45893;SDS011;31603;51.148;16.932;2024-01-06T09:06:48;90.38;;;24.27;;
45893;SDS011;31603;51.148;16.932;2024-01-06T09:09:15;69.65;;;18.90;;
45893;SDS011;31603;51.148;16.932;2024-01-06T09:11:42;61.85;;;19.98;;
45893;SDS011;31603;51.148;16.932;2024-01-06T09:14:11;75.68;;;22.27;;
45893;SDS011;31603;51.148;16.932;2024-01-06T09:16:39;65.63;;;22.63;;
45893;SDS011;31603;51.148;16.932;2024-01-06T09:19:06;67.97;;;21.98;;
45893;SDS011;31603;51.148;16.932;2024-01-06T09:21:33;79.53;;;24.15;;
45893;SDS011;31603;51.148;16.932;2024-01-06T09:24:00;69.55;;;21.55;;
45893;SDS011;31603;51.148;16.932;2024-01-06T09:26:31;69.57;;;21.02;;
45893;SDS011;31603;51.148;16.932;2024-01-06T09:28:58;72.13;;;22.42;;
45893;SDS011;31603;51.148;16.932;2024-01-06T09:31:25;95.63;;;26.48;;
45893;SDS011;31603;51.148;16.932;2024-01-06T09:33:54;82.95;;;23.48;;
45893;SDS011;31603;51.148;16.932;2024-01-06T09:36:20;87.72;;;24.98;;
45893;SDS011;31603;51.148;16.932;2024-01-06T09:38:47;81.80;;;23.10;;
45893;SDS011;31603;51.148;16.932;2024-01-06T09:41:14;86.20;;;24.63;;
45893;SDS011;31603;51.148;16.932;2024-01-06T09:43:40;72.32;;;22.10;;
45893;SDS011;31603;51.148;16.932;2024-01-06T09:46:10;75.85;;;24.33;;
45893;SDS011;31603;51.148;16.932;2024-01-06T09:48:41;91.28;;;29.05;;
45893;SDS011;31603;51.148;16.932;2024-01-06T09:51:10;102.85;;;29.20;;
45893;SDS011;31603;51.148;16.932;2024-01-06T09:53:40;90.68;;;28.15;;
45893;SDS011;31603;51.148;16.932;2024-01-06T09:56:10;87.78;;;27.42;;
45893;SDS011;31603;51.148;16.932;2024-01-06T09:58:38;103.00;;;32.40;;
45893;SDS011;31603;51.148;16.932;2024-01-06T10:01:06;81.53;;;23.20;;
45893;SDS011;31603;51.148;16.932;2024-01-06T10:03:33;70.35;;;21.85;;
45893;SDS011;31603;51.148;16.932;2024-01-06T10:06:02;120.63;;;35.28;;
45893;SDS011;31603;51.148;16.932;2024-01-06T10:08:30;135.18;;;40.00;;
45893;SDS011;31603;51.148;16.932;2024-01-06T10:10:58;109.28;;;38.35;;
45893;SDS011;31603;51.148;16.932;2024-01-06T10:13:24;99.88;;;36.38;;
45893;SDS011;31603;51.148;16.932;2024-01-06T10:15:53;106.45;;;38.42;;
45893;SDS011;31603;51.148;16.932;2024-01-06T10:18:20;89.18;;;25.40;;
45893;SDS011;31603;51.148;16.932;2024-01-06T10:20:47;86.70;;;25.60;;
45893;SDS011;31603;51.148;16.932;2024-01-06T10:23:14;94.63;;;24.83;;
45893;SDS011;31603;51.148;16.932;2024-01-06T10:25:42;85.47;;;23.17;;
45893;SDS011;31603;51.148;16.932;2024-01-06T10:28:11;87.70;;;27.20;;
45893;SDS011;31603;51.148;16.932;2024-01-06T10:30:38;93.50;;;26.25;;
45893;SDS011;31603;51.148;16.932;2024-01-06T10:33:07;92.32;;;28.55;;
45893;SDS011;31603;51.148;16.932;2024-01-06T10:35:38;77.38;;;25.27;;
45893;SDS011;31603;51.148;16.932;2024-01-06T10:38:06;78.68;;;23.58;;
45893;SDS011;31603;51.148;16.932;2024-01-06T10:40:33;102.60;;;30.55;;
45893;SDS011;31603;51.148;16.932;2024-01-06T10:43:01;115.28;;;26.80;;
45893;SDS011;31603;51.148;16.932;2024-01-06T10:45:30;95.75;;;30.13;;
45893;SDS011;31603;51.148;16.932;2024-01-06T10:47:57;101.00;;;29.58;;
45893;SDS011;31603;51.148;16.932;2024-01-06T10:50:25;89.15;;;25.67;;
45893;SDS011;31603;51.148;16.932;2024-01-06T10:52:55;87.40;;;24.95;;
45893;SDS011;31603;51.148;16.932;2024-01-06T10:55:23;84.40;;;26.88;;
45893;SDS011;31603;51.148;16.932;2024-01-06T10:57:52;90.85;;;26.55;;
45893;SDS011;31603;51.148;16.932;2024-01-06T11:00:21;84.47;;;25.48;;
45893;SDS011;31603;51.148;16.932;2024-01-06T11:02:48;78.80;;;22.75;;
45893;SDS011;31603;51.148;16.932;2024-01-06T11:05:17;68.00;;;22.05;;
45893;SDS011;31603;51.148;16.932;2024-01-06T11:07:46;87.05;;;23.88;;
45893;SDS011;31603;51.148;16.932;2024-01-06T11:10:16;70.97;;;22.00;;
45893;SDS011;31603;51.148;16.932;2024-01-06T11:15:41;80.38;;;21.52;;
45893;SDS011;31603;51.148;16.932;2024-01-06T11:18:14;83.05;;;23.65;;
45893;SDS011;31603;51.148;16.932;2024-01-06T11:23:44;101.78;;;28.60;;
45893;SDS011;31603;51.148;16.932;2024-01-06T11:26:13;99.95;;;27.00;;
45893;SDS011;31603;51.148;16.932;2024-01-06T11:28:44;84.85;;;25.90;;
45893;SDS011;31603;51.148;16.932;2024-01-06T11:31:13;92.73;;;27.70;;
45893;SDS011;31603;51.148;16.932;2024-01-06T11:33:43;101.32;;;28.40;;
45893;SDS011;31603;51.148;16.932;2024-01-06T11:36:12;80.45;;;26.08;;
45893;SDS011;31603;51.148;16.932;2024-01-06T11:38:40;109.80;;;31.52;;
45893;SDS011;31603;51.148;16.932;2024-01-06T11:41:13;105.10;;;28.38;;
45893;SDS011;31603;51.148;16.932;2024-01-06T11:44:18;114.93;;;35.08;;
45893;SDS011;31603;51.148;16.932;2024-01-06T11:46:48;110.68;;;32.35;;
45893;SDS011;31603;51.148;16.932;2024-01-06T11:49:15;99.25;;;30.10;;
45893;SDS011;31603;51.148;16.932;2024-01-06T11:51:42;109.07;;;33.80;;
45893;SDS011;31603;51.148;16.932;2024-01-06T11:54:09;110.38;;;31.27;;
45893;SDS011;31603;51.148;16.932;2024-01-06T11:56:37;100.03;;;28.10;;
45893;SDS011;31603;51.148;16.932;2024-01-06T11:59:04;83.47;;;27.25;;
45893;SDS011;31603;51.148;16.932;2024-01-06T12:01:36;101.47;;;32.67;;
45893;SDS011;31603;51.148;16.932;2024-01-06T12:04:04;100.63;;;29.13;;
45893;SDS011;31603;51.148;16.932;2024-01-06T12:06:31;95.28;;;29.23;;
45893;SDS011;31603;51.148;16.932;2024-01-06T12:09:04;100.20;;;31.70;;
45893;SDS011;31603;51.148;16.932;2024-01-06T12:11:31;109.30;;;35.78;;
45893;SDS011;31603;51.148;16.932;2024-01-06T12:13:58;100.97;;;34.08;;
45893;SDS011;31603;51.148;16.932;2024-01-06T12:16:25;110.45;;;33.63;;
45893;SDS011;31603;51.148;16.932;2024-01-06T12:18:52;126.63;;;36.72;;
45893;SDS011;31603;51.148;16.932;2024-01-06T12:21:24;113.50;;;35.33;;
45893;SDS011;31603;51.148;16.932;2024-01-06T12:23:51;98.22;;;30.25;;
45893;SDS011;31603;51.148;16.932;2024-01-06T12:26:18;100.90;;;31.90;;
45893;SDS011;31603;51.148;16.932;2024-01-06T12:28:48;107.93;;;29.48;;
45893;SDS011;31603;51.148;16.932;2024-01-06T12:31:15;102.78;;;27.40;;
45893;SDS011;31603;51.148;16.932;2024-01-06T12:33:44;114.80;;;35.00;;
45893;SDS011;31603;51.148;16.932;2024-01-06T12:36:11;130.95;;;40.42;;
45893;SDS011;31603;51.148;16.932;2024-01-06T12:38:39;102.03;;;36.45;;
45893;SDS011;31603;51.148;16.932;2024-01-06T12:41:08;131.05;;;36.47;;
45893;SDS011;31603;51.148;16.932;2024-01-06T12:43:37;97.63;;;31.20;;
45893;SDS011;31603;51.148;16.932;2024-01-06T12:46:04;131.30;;;34.47;;
45893;SDS011;31603;51.148;16.932;2024-01-06T12:48:31;117.40;;;33.33;;
45893;SDS011;31603;51.148;16.932;2024-01-06T12:50:58;113.95;;;34.35;;
45893;SDS011;31603;51.148;16.932;2024-01-06T12:53:26;101.10;;;28.85;;
45893;SDS011;31603;51.148;16.932;2024-01-06T12:55:57;133.05;;;36.10;;
45893;SDS011;31603;51.148;16.932;2024-01-06T12:58:24;116.40;;;32.20;;
45893;SDS011;31603;51.148;16.932;2024-01-06T13:00:50;109.95;;;31.85;;
45893;SDS011;31603;51.148;16.932;2024-01-06T13:03:20;89.65;;;28.27;;
45893;SDS011;31603;51.148;16.932;2024-01-06T13:05:47;105.10;;;28.00;;
45893;SDS011;31603;51.148;16.932;2024-01-06T13:08:13;110.60;;;33.05;;
45893;SDS011;31603;51.148;16.932;2024-01-06T13:10:40;144.23;;;40.63;;
45893;SDS011;31603;51.148;16.932;2024-01-06T13:13:08;120.30;;;32.17;;
45893;SDS011;31603;51.148;16.932;2024-01-06T13:15:35;141.30;;;38.08;;
45893;SDS011;31603;51.148;16.932;2024-01-06T13:18:02;126.47;;;34.45;;
45893;SDS011;31603;51.148;16.932;2024-01-06T13:20:29;115.10;;;33.42;;
45893;SDS011;31603;51.148;16.932;2024-01-06T13:22:57;132.05;;;36.42;;
45893;SDS011;31603;51.148;16.932;2024-01-06T13:25:24;124.00;;;32.70;;
45893;SDS011;31603;51.148;16.932;2024-01-06T13:27:50;110.88;;;33.33;;
45893;SDS011;31603;51.148;16.932;2024-01-06T13:30:21;119.68;;;36.97;;
45893;SDS011;31603;51.148;16.932;2024-01-06T13:32:48;126.88;;;35.40;;
45893;SDS011;31603;51.148;16.932;2024-01-06T13:35:15;125.32;;;34.17;;
45893;SDS011;31603;51.148;16.932;2024-01-06T13:37:42;118.07;;;35.40;;
45893;SDS011;31603;51.148;16.932;2024-01-06T13:40:11;151.40;;;48.83;;
45893;SDS011;31603;51.148;16.932;2024-01-06T13:42:38;104.70;;;34.47;;
45893;SDS011;31603;51.148;16.932;2024-01-06T13:45:05;95.03;;;33.40;;
45893;SDS011;31603;51.148;16.932;2024-01-06T13:47:34;94.65;;;28.98;;
45893;SDS011;31603;51.148;16.932;2024-01-06T13:50:00;112.35;;;32.65;;
45893;SDS011;31603;51.148;16.932;2024-01-06T13:52:27;94.22;;;32.38;;
45893;SDS011;31603;51.148;16.932;2024-01-06T13:54:54;99.55;;;32.20;;
45893;SDS011;31603;51.148;16.932;2024-01-06T13:57:22;94.22;;;29.73;;
45893;SDS011;31603;51.148;16.932;2024-01-06T13:59:52;110.72;;;30.20;;
45893;SDS011;31603;51.148;16.932;2024-01-06T14:02:20;96.60;;;32.33;;
45893;SDS011;31603;51.148;16.932;2024-01-06T14:04:48;90.10;;;31.40;;
45893;SDS011;31603;51.148;16.932;2024-01-06T14:07:15;88.68;;;30.60;;
45893;SDS011;31603;51.148;16.932;2024-01-06T14:09:44;91.28;;;31.48;;
45893;SDS011;31603;51.148;16.932;2024-01-06T14:12:11;102.45;;;32.65;;
45893;SDS011;31603;51.148;16.932;2024-01-06T14:14:38;100.20;;;32.30;;